Time;durP1;ratioP1;P1;durP2;ratioP2;P2;SDS_P1;SDS_P2;PMS_P1;PMS_P2;Temp;Humidity;BMP_temperature;BMP_pressure;BME280_temperature;BME280_humidity;BME280_pressure;Samples;Min_cycle;Max_cycle;Signal;HPM_P1;HPM_P2
2020/12/09 00:01:54;;;;;;;30.23;14.93;;;;;;;;;;5010811;28;20224;-78
2020/12/09 00:04:23;;;;;;;29.80;14.30;;;;;;;;;;5003285;28;20613;-77
2020/12/09 00:06:50;;;;;;;29.90;15.30;;;;;;;;;;4994539;28;20221;-78
2020/12/09 00:09:20;;;;;;;30.13;14.53;;;;;;;;;;5011347;28;20702;-78
2020/12/09 00:11:51;;;;;;;30.80;14.53;;;;;;;;;;5012026;28;20599;-78
2020/12/09 00:14:20;;;;;;;29.73;14.27;;;;;;;;;;4995569;28;20745;-78
2020/12/09 00:16:49;;;;;;;36.53;15.73;;;;;;;;;;4996268;28;20758;-78
2020/12/09 00:19:16;;;;;;;31.17;14.57;;;;;;;;;;5008552;28;20233;-78
2020/12/09 00:21:45;;;;;;;27.23;13.67;;;;;;;;;;5009379;28;20240;-78
2020/12/09 00:24:13;;;;;;;26.80;13.23;;;;;;;;;;5023814;28;20233;-77
2020/12/09 00:26:40;;;;;;;33.13;15.73;;;;;;;;;;5023402;28;20232;-78
2020/12/09 00:29:08;;;;;;;33.93;15.23;;;;;;;;;;5066399;28;20231;-78
2020/12/09 00:31:35;;;;;;;30.40;13.70;;;;;;;;;;5038965;28;20231;-78
2020/12/09 00:34:03;;;;;;;29.70;13.77;;;;;;;;;;5031252;28;20594;-76
2020/12/09 00:36:31;;;;;;;32.03;15.17;;;;;;;;;;5014766;28;20587;-77
2020/12/09 00:38:59;;;;;;;32.20;14.50;;;;;;;;;;5028601;28;20251;-77
2020/12/09 00:41:28;;;;;;;35.27;14.97;;;;;;;;;;5032392;28;20232;-78
2020/12/09 00:43:56;;;;;;;37.47;15.17;;;;;;;;;;5014228;28;20717;-77
2020/12/09 00:46:26;;;;;;;29.73;13.93;;;;;;;;;;5028193;28;20224;-77
2020/12/09 00:48:59;;;;;;;30.33;14.47;;;;;;;;;;5011229;28;20232;-76
2020/12/09 00:51:30;;;;;;;31.77;15.93;;;;;;;;;;5057268;28;20247;-77
2020/12/09 00:54:01;;;;;;;33.13;15.33;;;;;;;;;;5034147;28;20236;-77
2020/12/09 00:56:32;;;;;;;31.33;15.40;;;;;;;;;;5027158;28;20228;-77
2020/12/09 00:59:07;;;;;;;35.07;15.50;;;;;;;;;;5028327;28;20226;-76
2020/12/09 01:01:36;;;;;;;33.27;15.50;;;;;;;;;;5028477;28;20595;-76
2020/12/09 01:04:07;;;;;;;32.07;15.70;;;;;;;;;;5025915;28;20229;-76
2020/12/09 01:06:35;;;;;;;36.60;15.83;;;;;;;;;;5005017;28;20241;-77
2020/12/09 01:09:06;;;;;;;32.97;16.03;;;;;;;;;;5028747;28;20716;-77
2020/12/09 01:11:34;;;;;;;29.80;15.27;;;;;;;;;;5010296;28;20232;-76
2020/12/09 01:14:01;;;;;;;35.10;15.53;;;;;;;;;;5030314;28;20599;-76
2020/12/09 01:16:29;;;;;;;31.50;15.17;;;;;;;;;;5014413;28;20251;-76
2020/12/09 01:18:57;;;;;;;34.03;16.90;;;;;;;;;;5005676;28;20224;-77
2020/12/09 01:21:28;;;;;;;32.27;14.07;;;;;;;;;;5024799;28;20733;-77
2020/12/09 01:23:56;;;;;;;33.43;14.67;;;;;;;;;;5082611;28;20212;-77
2020/12/09 01:26:24;;;;;;;35.13;14.87;;;;;;;;;;5040899;28;20234;-76
2020/12/09 01:28:52;;;;;;;32.63;15.33;;;;;;;;;;5024681;28;20299;-77
2020/12/09 01:31:21;;;;;;;30.03;14.70;;;;;;;;;;5008698;28;20246;-77
2020/12/09 01:33:48;;;;;;;30.13;14.80;;;;;;;;;;5004401;28;20220;-76
2020/12/09 01:36:20;;;;;;;31.77;14.73;;;;;;;;;;4978719;28;20229;-77
2020/12/09 01:38:48;;;;;;;32.70;15.63;;;;;;;;;;5019909;28;20234;-76
2020/12/09 01:41:17;;;;;;;30.67;15.07;;;;;;;;;;5030169;28;20661;-76
2020/12/09 01:43:47;;;;;;;31.33;14.93;;;;;;;;;;5018873;28;20241;-77
2020/12/09 01:46:16;;;;;;;32.47;15.27;;;;;;;;;;5011680;28;20281;-77
2020/12/09 01:48:44;;;;;;;33.40;15.37;;;;;;;;;;5004262;28;20236;-77
2020/12/09 01:51:13;;;;;;;32.73;14.73;;;;;;;;;;5041799;28;20237;-77
2020/12/09 01:53:41;;;;;;;30.10;14.83;;;;;;;;;;5023447;28;20237;-77
2020/12/09 01:56:09;;;;;;;35.90;15.70;;;;;;;;;;5012397;28;20228;-77
2020/12/09 01:58:36;;;;;;;35.33;15.53;;;;;;;;;;5002100;28;20615;-77
2020/12/09 02:01:05;;;;;;;32.77;15.97;;;;;;;;;;5015817;28;20235;-78
2020/12/09 02:03:32;;;;;;;37.43;15.60;;;;;;;;;;5015814;28;20606;-77
2020/12/09 02:06:00;;;;;;;32.47;15.77;;;;;;;;;;5059383;28;20224;-77
2020/12/09 02:08:28;;;;;;;32.60;15.20;;;;;;;;;;5004183;28;20251;-77
2020/12/09 02:10:56;;;;;;;32.57;15.40;;;;;;;;;;5012440;28;20745;-78
2020/12/09 02:13:24;;;;;;;31.77;14.93;;;;;;;;;;5010725;28;20246;-77
2020/12/09 02:15:52;;;;;;;35.87;15.60;;;;;;;;;;5028641;28;20224;-77
2020/12/09 02:18:20;;;;;;;31.70;14.27;;;;;;;;;;5005742;28;20347;-77
2020/12/09 02:20:48;;;;;;;31.47;14.70;;;;;;;;;;5006305;28;20246;-77
2020/12/09 02:23:16;;;;;;;31.53;14.90;;;;;;;;;;5003790;28;20244;-77
2020/12/09 02:25:45;;;;;;;39.43;16.63;;;;;;;;;;4990244;28;20228;-77
2020/12/09 02:28:13;;;;;;;37.90;15.97;;;;;;;;;;5030851;28;20242;-77
2020/12/09 02:30:41;;;;;;;36.23;15.67;;;;;;;;;;5012814;28;20721;-79
2020/12/09 02:33:08;;;;;;;38.33;15.37;;;;;;;;;;4993027;28;20225;-77
2020/12/09 02:35:36;;;;;;;35.60;17.23;;;;;;;;;;5009237;28;20236;-77
2020/12/09 02:38:04;;;;;;;32.23;16.33;;;;;;;;;;5009164;28;20228;-77
2020/12/09 02:40:32;;;;;;;37.93;17.40;;;;;;;;;;5006965;28;20629;-77
2020/12/09 02:42:59;;;;;;;35.73;15.63;;;;;;;;;;5002118;28;20713;-77
2020/12/09 02:45:27;;;;;;;39.17;16.37;;;;;;;;;;4990526;28;20233;-77
2020/12/09 02:47:55;;;;;;;36.90;16.70;;;;;;;;;;5005575;28;20236;-76
2020/12/09 02:50:23;;;;;;;38.50;17.60;;;;;;;;;;5027852;28;20236;-77
2020/12/09 02:52:50;;;;;;;29.27;14.73;;;;;;;;;;5015978;28;20251;-78
2020/12/09 02:55:19;;;;;;;40.67;15.67;;;;;;;;;;5014150;28;20243;-77
2020/12/09 02:57:49;;;;;;;43.07;17.27;;;;;;;;;;5034100;28;20231;-77
2020/12/09 03:00:17;;;;;;;37.93;17.63;;;;;;;;;;5039169;28;20228;-77
2020/12/09 03:02:44;;;;;;;39.43;16.90;;;;;;;;;;5027196;28;20227;-77
2020/12/09 03:05:12;;;;;;;38.07;17.73;;;;;;;;;;5023293;28;20243;-77
2020/12/09 03:07:39;;;;;;;37.87;17.77;;;;;;;;;;5024792;28;20733;-77
2020/12/09 03:10:07;;;;;;;41.43;17.33;;;;;;;;;;5019229;28;20232;-78
2020/12/09 03:12:34;;;;;;;39.20;17.10;;;;;;;;;;5028556;28;20601;-77
2020/12/09 03:15:03;;;;;;;39.43;17.30;;;;;;;;;;5035254;28;20295;-77
2020/12/09 03:17:31;;;;;;;35.47;16.37;;;;;;;;;;5006803;28;20233;-77
2020/12/09 03:19:58;;;;;;;41.40;17.43;;;;;;;;;;5029776;28;20232;-77
2020/12/09 03:22:26;;;;;;;43.53;19.67;;;;;;;;;;5022391;28;20244;-77
2020/12/09 03:24:53;;;;;;;37.33;17.33;;;;;;;;;;5007719;28;20229;-77
2020/12/09 03:27:21;;;;;;;37.57;18.00;;;;;;;;;;5012857;28;20237;-77
2020/12/09 03:29:49;;;;;;;41.43;17.10;;;;;;;;;;5010674;28;20606;-77
2020/12/09 03:32:18;;;;;;;42.17;17.13;;;;;;;;;;4990726;28;20248;-77
2020/12/09 03:34:46;;;;;;;34.87;16.63;;;;;;;;;;5003948;28;20624;-76
2020/12/09 03:37:13;;;;;;;39.87;17.73;;;;;;;;;;5029340;28;20290;-76
2020/12/09 03:39:41;;;;;;;42.17;17.90;;;;;;;;;;5035141;28;20243;-78
2020/12/09 03:42:08;;;;;;;42.73;16.77;;;;;;;;;;5036125;28;20236;-76
2020/12/09 03:44:36;;;;;;;36.57;16.33;;;;;;;;;;5008006;28;20236;-76
2020/12/09 03:47:05;;;;;;;36.10;15.67;;;;;;;;;;5001564;28;20733;-77
2020/12/09 03:49:33;;;;;;;38.43;17.67;;;;;;;;;;5013343;28;20611;-77
2020/12/09 03:52:01;;;;;;;35.17;16.23;;;;;;;;;;5028614;28;20233;-76
2020/12/09 03:54:29;;;;;;;32.40;15.83;;;;;;;;;;5024371;28;20232;-77
2020/12/09 03:56:56;;;;;;;38.93;16.70;;;;;;;;;;5013801;28;20251;-77
2020/12/09 03:59:24;;;;;;;33.83;16.00;;;;;;;;;;4996899;28;20233;-77
2020/12/09 04:01:52;;;;;;;43.90;17.80;;;;;;;;;;5010336;28;20475;-77
2020/12/09 04:04:19;;;;;;;34.50;16.03;;;;;;;;;;5005876;28;20229;-76
2020/12/09 04:06:48;;;;;;;39.57;15.80;;;;;;;;;;5006714;28;20217;-76
2020/12/09 04:09:16;;;;;;;40.23;17.60;;;;;;;;;;4999509;28;20248;-76
2020/12/09 04:11:43;;;;;;;39.90;16.23;;;;;;;;;;4997604;28;20232;-79
2020/12/09 04:14:11;;;;;;;37.57;16.20;;;;;;;;;;4993443;28;20229;-78
2020/12/09 04:16:38;;;;;;;36.80;16.30;;;;;;;;;;4988043;28;20640;-78
2020/12/09 04:19:06;;;;;;;39.23;16.20;;;;;;;;;;5030900;28;20228;-77
2020/12/09 04:21:33;;;;;;;36.00;15.47;;;;;;;;;;5019787;28;20224;-76
2020/12/09 04:24:02;;;;;;;33.93;15.43;;;;;;;;;;5033510;28;20234;-78
2020/12/09 04:26:29;;;;;;;35.20;16.03;;;;;;;;;;5012368;28;20221;-78
2020/12/09 04:28:57;;;;;;;33.97;15.00;;;;;;;;;;5019435;28;20244;-78
2020/12/09 04:31:24;;;;;;;32.90;15.33;;;;;;;;;;4995397;28;20235;-78
2020/12/09 04:33:53;;;;;;;32.23;13.73;;;;;;;;;;5011868;28;20244;-78
2020/12/09 04:36:21;;;;;;;33.30;14.27;;;;;;;;;;4985148;28;20698;-77
2020/12/09 04:38:49;;;;;;;34.23;14.50;;;;;;;;;;5007718;28;20245;-76
2020/12/09 04:41:18;;;;;;;32.93;13.53;;;;;;;;;;5008542;28;20657;-77
2020/12/09 04:43:46;;;;;;;32.50;14.40;;;;;;;;;;5002802;28;20702;-76
2020/12/09 04:46:14;;;;;;;28.93;12.70;;;;;;;;;;5029885;28;20230;-77
2020/12/09 04:48:42;;;;;;;30.37;14.53;;;;;;;;;;5021133;28;20606;-79
2020/12/09 04:51:30;;;;;;;30.10;13.87;;;;;;;;;;5007355;28;20737;-78
2020/12/09 04:53:59;;;;;;;32.77;13.50;;;;;;;;;;5005332;28;20225;-78
2020/12/09 04:56:29;;;;;;;28.20;13.43;;;;;;;;;;5014231;28;20228;-78
2020/12/09 04:58:57;;;;;;;32.20;13.93;;;;;;;;;;5009640;28;20224;-78
2020/12/09 05:01:33;;;;;;;31.50;13.97;;;;;;;;;;5008126;28;20217;-78
2020/12/09 05:04:06;;;;;;;28.40;14.93;;;;;;;;;;4999415;28;20236;-78
2020/12/09 05:06:33;;;;;;;28.17;13.33;;;;;;;;;;4990097;28;20237;-77
2020/12/09 05:09:01;;;;;;;28.23;13.07;;;;;;;;;;5014837;28;20717;-78
2020/12/09 05:11:29;;;;;;;28.70;13.90;;;;;;;;;;5027715;28;20235;-77
2020/12/09 05:13:58;;;;;;;27.80;13.27;;;;;;;;;;5000993;28;20225;-78
2020/12/09 05:16:27;;;;;;;25.97;13.03;;;;;;;;;;5000525;28;20234;-78
2020/12/09 05:18:56;;;;;;;28.13;14.60;;;;;;;;;;5018742;28;20228;-78
2020/12/09 05:21:25;;;;;;;33.83;14.10;;;;;;;;;;4984054;28;20240;-78
2020/12/09 05:23:54;;;;;;;26.93;13.30;;;;;;;;;;5008367;28;20217;-77
2020/12/09 05:26:25;;;;;;;33.63;15.13;;;;;;;;;;5003760;28;20233;-78
2020/12/09 05:29:09;;;;;;;29.10;13.67;;;;;;;;;;5012005;28;20220;-77
2020/12/09 05:31:37;;;;;;;29.17;14.83;;;;;;;;;;5020736;28;20233;-77
2020/12/09 05:34:25;;;;;;;33.67;14.33;;;;;;;;;;5013163;28;20229;-78
2020/12/09 05:36:53;;;;;;;29.87;13.67;;;;;;;;;;5054615;28;20212;-77
2020/12/09 05:39:21;;;;;;;29.70;13.33;;;;;;;;;;5017181;28;20233;-77
2020/12/09 05:41:49;;;;;;;28.60;13.43;;;;;;;;;;5001589;28;20591;-78
2020/12/09 05:44:18;;;;;;;30.90;14.27;;;;;;;;;;4997849;28;20231;-78
2020/12/09 05:46:57;;;;;;;30.87;13.77;;;;;;;;;;5002382;28;20216;-78
2020/12/09 05:49:27;;;;;;;26.20;13.37;;;;;;;;;;5022774;28;20232;-78
2020/12/09 05:52:13;;;;;;;27.50;13.03;;;;;;;;;;5027953;28;20217;-78
2020/12/09 05:54:42;;;;;;;23.60;11.63;;;;;;;;;;5020139;28;20243;-77
2020/12/09 05:57:11;;;;;;;27.37;12.40;;;;;;;;;;5024599;28;20224;-77
2020/12/09 05:59:41;;;;;;;24.33;11.47;;;;;;;;;;5008896;28;20246;-77
2020/12/09 06:02:18;;;;;;;23.20;11.67;;;;;;;;;;4991408;28;20229;-77
2020/12/09 06:04:54;;;;;;;26.00;12.03;;;;;;;;;;4980608;28;20229;-78
2020/12/09 06:07:23;;;;;;;24.23;12.10;;;;;;;;;;4992061;28;20588;-78
2020/12/09 06:10:13;;;;;;;18.50;10.20;;;;;;;;;;4992199;28;20216;-78
2020/12/09 06:13:00;;;;;;;21.27;9.83;;;;;;;;;;5005556;28;20512;-78
2020/12/09 06:15:29;;;;;;;21.80;10.20;;;;;;;;;;4996574;28;20236;-78
2020/12/09 06:18:07;;;;;;;22.93;11.47;;;;;;;;;;4983473;28;20244;-78
2020/12/09 06:20:35;;;;;;;20.00;10.80;;;;;;;;;;5002216;28;20233;-78
2020/12/09 06:23:07;;;;;;;21.33;11.13;;;;;;;;;;5004505;28;20232;-77
2020/12/09 06:25:35;;;;;;;22.03;10.07;;;;;;;;;;5004609;28;20232;-77
2020/12/09 06:28:08;;;;;;;21.33;11.23;;;;;;;;;;5003698;28;20719;-78
2020/12/09 06:30:36;;;;;;;20.20;10.87;;;;;;;;;;5022491;28;20216;-77
2020/12/09 06:33:03;;;;;;;21.80;10.57;;;;;;;;;;5017043;28;20232;-77
2020/12/09 06:35:31;;;;;;;20.27;10.37;;;;;;;;;;5023193;28;20732;-78
2020/12/09 06:38:15;;;;;;;19.57;9.60;;;;;;;;;;5022714;28;20235;-77
2020/12/09 06:41:22;;;;;;;18.40;9.67;;;;;;;;;;5020293;28;20228;-77
2020/12/09 06:44:04;;;;;;;22.43;10.23;;;;;;;;;;5002464;28;20228;-78
2020/12/09 06:46:44;;;;;;;20.63;10.53;;;;;;;;;;5008155;28;20236;-77
2020/12/09 06:49:37;;;;;;;23.67;10.43;;;;;;;;;;4978783;28;20235;-77
2020/12/09 06:52:35;;;;;;;20.10;10.97;;;;;;;;;;5018747;28;20232;-77
2020/12/09 06:55:06;;;;;;;18.77;9.90;;;;;;;;;;4992517;28;20508;-77
2020/12/09 06:57:37;;;;;;;18.77;10.60;;;;;;;;;;5002652;28;20600;-78
2020/12/09 07:00:22;;;;;;;22.27;11.27;;;;;;;;;;4981599;28;20228;-78
2020/12/09 07:03:25;;;;;;;22.07;10.20;;;;;;;;;;5009371;28;20244;-78
2020/12/09 07:05:53;;;;;;;20.77;10.23;;;;;;;;;;4993990;28;20213;-78
2020/12/09 07:08:20;;;;;;;18.10;9.57;;;;;;;;;;4994565;28;20234;-78
2020/12/09 07:10:48;;;;;;;20.47;10.40;;;;;;;;;;4972585;28;20221;-78
2020/12/09 07:13:17;;;;;;;18.87;9.60;;;;;;;;;;4993222;28;20698;-78
2020/12/09 07:15:50;;;;;;;19.53;10.77;;;;;;;;;;4984627;28;20221;-79
2020/12/09 07:18:19;;;;;;;18.43;9.63;;;;;;;;;;5018793;28;20244;-77
2020/12/09 07:20:47;;;;;;;19.30;10.33;;;;;;;;;;4995857;28;20620;-78
2020/12/09 07:23:15;;;;;;;18.77;9.27;;;;;;;;;;4998023;28;20476;-78
2020/12/09 07:25:42;;;;;;;21.23;9.97;;;;;;;;;;5022122;28;20240;-78
2020/12/09 07:28:10;;;;;;;18.07;9.17;;;;;;;;;;5017847;28;20227;-79
2020/12/09 07:30:37;;;;;;;17.83;9.53;;;;;;;;;;4989947;28;20246;-78
2020/12/09 07:33:04;;;;;;;23.37;11.10;;;;;;;;;;5011522;28;20233;-78
2020/12/09 07:35:33;;;;;;;19.00;10.07;;;;;;;;;;4983546;28;20232;-78
2020/12/09 07:38:01;;;;;;;112.90;15.07;;;;;;;;;;5009450;28;20605;-79
2020/12/09 07:40:30;;;;;;;20.97;9.73;;;;;;;;;;5016102;28;20324;-78
2020/12/09 07:43:03;;;;;;;18.87;9.53;;;;;;;;;;5021822;28;20227;-78
2020/12/09 07:45:33;;;;;;;25.07;10.73;;;;;;;;;;5027279;28;20229;-78
2020/12/09 07:48:02;;;;;;;16.30;9.23;;;;;;;;;;5013211;28;23044;-78
2020/12/09 07:50:30;;;;;;;17.87;9.23;;;;;;;;;;4986111;28;20229;-78
2020/12/09 07:52:58;;;;;;;19.27;9.80;;;;;;;;;;4997296;28;20237;-78
2020/12/09 07:55:26;;;;;;;18.90;9.83;;;;;;;;;;5003593;28;20227;-78
2020/12/09 07:58:03;;;;;;;30.53;11.53;;;;;;;;;;4987219;28;20229;-78
2020/12/09 08:00:38;;;;;;;20.67;9.80;;;;;;;;;;5001501;28;20224;-78
2020/12/09 08:03:06;;;;;;;103.63;12.80;;;;;;;;;;5031831;28;20254;-78
2020/12/09 08:05:35;;;;;;;17.80;9.20;;;;;;;;;;5032273;28;20240;-78
2020/12/09 08:08:07;;;;;;;17.10;9.10;;;;;;;;;;5031938;28;20224;-78
2020/12/09 08:10:36;;;;;;;18.23;8.87;;;;;;;;;;5009129;28;20626;-78
2020/12/09 08:13:07;;;;;;;18.10;9.07;;;;;;;;;;5034573;28;20229;-78
2020/12/09 08:15:36;;;;;;;15.37;8.30;;;;;;;;;;5009562;28;20224;-78
2020/12/09 08:18:04;;;;;;;19.03;10.03;;;;;;;;;;4999969;28;20231;-78
2020/12/09 08:20:45;;;;;;;15.73;8.73;;;;;;;;;;4990379;28;20313;-78
2020/12/09 08:23:15;;;;;;;16.60;9.07;;;;;;;;;;5017179;28;20229;-78
2020/12/09 08:25:48;;;;;;;16.00;9.23;;;;;;;;;;5025372;28;20603;-79
2020/12/09 08:28:20;;;;;;;18.60;10.33;;;;;;;;;;4994140;28;20233;-78
2020/12/09 08:30:48;;;;;;;17.53;9.27;;;;;;;;;;4995455;28;20228;-78
2020/12/09 08:33:21;;;;;;;15.63;8.07;;;;;;;;;;4996007;28;20237;-78
2020/12/09 08:36:00;;;;;;;17.07;9.40;;;;;;;;;;4988620;28;20231;-79
2020/12/09 08:38:34;;;;;;;13.67;7.77;;;;;;;;;;5006848;28;20228;-78
2020/12/09 08:41:24;;;;;;;17.43;9.10;;;;;;;;;;5023783;28;20239;-78
2020/12/09 08:43:55;;;;;;;20.00;10.57;;;;;;;;;;5028806;28;20220;-78
2020/12/09 08:46:24;;;;;;;12.80;6.80;;;;;;;;;;5035494;28;20212;-78
2020/12/09 08:48:51;;;;;;;14.73;7.80;;;;;;;;;;5007707;28;20239;-78
2020/12/09 08:51:22;;;;;;;14.90;7.20;;;;;;;;;;5003834;28;20240;-78
2020/12/09 08:53:52;;;;;;;15.43;7.87;;;;;;;;;;5000493;28;20225;-78
2020/12/09 08:56:25;;;;;;;14.17;8.40;;;;;;;;;;4997425;28;20240;-77
2020/12/09 08:58:52;;;;;;;16.13;8.40;;;;;;;;;;5022289;28;20224;-78
2020/12/09 09:01:20;;;;;;;12.40;7.20;;;;;;;;;;4999368;28;20232;-78
2020/12/09 09:03:51;;;;;;;13.03;8.40;;;;;;;;;;5008099;28;20243;-78
2020/12/09 09:06:19;;;;;;;11.43;6.23;;;;;;;;;;5054313;28;20240;-78
2020/12/09 09:08:47;;;;;;;13.23;7.23;;;;;;;;;;5025612;28;20220;-78
2020/12/09 09:11:22;;;;;;;13.63;6.93;;;;;;;;;;5026353;28;20232;-78
2020/12/09 09:13:49;;;;;;;13.93;6.83;;;;;;;;;;5018829;28;20227;-77
2020/12/09 09:16:17;;;;;;;11.83;5.67;;;;;;;;;;5007855;28;20597;-77
2020/12/09 09:18:45;;;;;;;8.60;5.70;;;;;;;;;;5029216;28;20232;-77
2020/12/09 09:21:13;;;;;;;9.67;5.60;;;;;;;;;;5010268;28;20241;-78
2020/12/09 09:23:41;;;;;;;9.90;5.33;;;;;;;;;;5009190;28;20229;-78
2020/12/09 09:26:15;;;;;;;11.00;5.80;;;;;;;;;;4983025;28;20233;-77
2020/12/09 09:28:43;;;;;;;11.43;5.57;;;;;;;;;;4988256;28;20225;-77
2020/12/09 09:31:11;;;;;;;7.77;4.87;;;;;;;;;;5005619;28;20721;-77
2020/12/09 09:33:38;;;;;;;9.73;6.10;;;;;;;;;;4998161;28;20244;-76
2020/12/09 09:36:07;;;;;;;9.93;5.73;;;;;;;;;;5014468;28;20232;-78
2020/12/09 09:38:35;;;;;;;8.27;5.27;;;;;;;;;;5031044;28;20228;-77
2020/12/09 09:41:02;;;;;;;7.23;4.20;;;;;;;;;;5008517;28;20224;-77
2020/12/09 09:43:30;;;;;;;6.30;4.07;;;;;;;;;;4995006;28;20223;-77
2020/12/09 09:46:00;;;;;;;5.47;4.43;;;;;;;;;;4975510;28;20233;-78
2020/12/09 09:48:28;;;;;;;5.87;3.90;;;;;;;;;;5016568;28;20733;-78
2020/12/09 09:50:55;;;;;;;6.13;4.53;;;;;;;;;;4989300;28;20225;-78
2020/12/09 09:53:23;;;;;;;6.53;4.10;;;;;;;;;;4977660;28;20230;-78
2020/12/09 09:55:50;;;;;;;5.63;4.30;;;;;;;;;;4994618;28;20244;-78
2020/12/09 09:58:18;;;;;;;5.33;3.83;;;;;;;;;;4994914;28;20224;-78
2020/12/09 10:00:45;;;;;;;5.53;3.70;;;;;;;;;;4996270;28;20233;-77
2020/12/09 10:03:14;;;;;;;6.33;4.03;;;;;;;;;;4990567;28;20600;-78
2020/12/09 10:05:42;;;;;;;6.33;3.70;;;;;;;;;;5014040;28;20228;-78
2020/12/09 10:08:09;;;;;;;4.87;3.20;;;;;;;;;;5007767;28;20227;-78
2020/12/09 10:10:37;;;;;;;4.97;3.67;;;;;;;;;;4988615;28;20221;-78
2020/12/09 10:13:04;;;;;;;5.57;3.97;;;;;;;;;;5015551;28;20227;-78
2020/12/09 10:15:32;;;;;;;5.93;4.20;;;;;;;;;;5050812;28;20217;-77
2020/12/09 10:17:59;;;;;;;4.83;3.53;;;;;;;;;;5023357;28;20224;-77
2020/12/09 10:20:28;;;;;;;6.93;3.57;;;;;;;;;;5011560;28;20232;-78
2020/12/09 10:22:55;;;;;;;4.43;3.47;;;;;;;;;;5025314;28;20219;-77
2020/12/09 10:25:24;;;;;;;5.50;3.90;;;;;;;;;;5024429;28;20479;-77
2020/12/09 10:27:52;;;;;;;6.53;4.03;;;;;;;;;;5007945;28;20235;-78
2020/12/09 10:30:20;;;;;;;6.60;4.23;;;;;;;;;;5011008;28;20227;-78
2020/12/09 10:32:47;;;;;;;6.57;3.83;;;;;;;;;;5006983;28;20236;-78
2020/12/09 10:35:16;;;;;;;6.10;4.00;;;;;;;;;;5023714;28;20233;-77
2020/12/09 10:37:45;;;;;;;8.77;4.60;;;;;;;;;;5054145;28;20216;-78
2020/12/09 10:40:12;;;;;;;5.80;4.20;;;;;;;;;;5011067;28;20220;-78
2020/12/09 10:42:39;;;;;;;6.57;4.40;;;;;;;;;;4994943;28;20240;-78
2020/12/09 10:45:08;;;;;;;6.43;4.30;;;;;;;;;;4998673;28;20265;-78
2020/12/09 10:47:36;;;;;;;6.27;3.87;;;;;;;;;;4987216;28;20483;-77
2020/12/09 10:50:04;;;;;;;7.07;4.30;;;;;;;;;;5007268;28;20391;-78
2020/12/09 10:52:32;;;;;;;6.80;4.70;;;;;;;;;;4996444;28;20366;-78
2020/12/09 10:55:00;;;;;;;7.37;4.57;;;;;;;;;;4974543;28;20229;-77
2020/12/09 10:57:28;;;;;;;6.87;4.50;;;;;;;;;;4983240;28;20576;-77
2020/12/09 10:59:56;;;;;;;7.07;4.37;;;;;;;;;;4999691;28;20235;-78
2020/12/09 11:02:23;;;;;;;7.57;4.70;;;;;;;;;;4987679;28;20228;-77
2020/12/09 11:04:51;;;;;;;7.17;4.70;;;;;;;;;;5051090;28;20227;-77
2020/12/09 11:07:18;;;;;;;7.93;5.13;;;;;;;;;;5014299;28;20224;-77
2020/12/09 11:09:46;;;;;;;7.50;4.67;;;;;;;;;;4986102;28;20224;-78
2020/12/09 11:12:14;;;;;;;6.77;4.67;;;;;;;;;;4980852;28;20236;-77
2020/12/09 11:14:42;;;;;;;8.37;4.50;;;;;;;;;;4999209;28;20229;-78
2020/12/09 11:17:09;;;;;;;6.50;4.33;;;;;;;;;;4996243;28;20822;-76
2020/12/09 11:19:37;;;;;;;9.07;5.17;;;;;;;;;;4992391;28;20228;-77
2020/12/09 11:22:04;;;;;;;7.80;4.50;;;;;;;;;;4978871;28;20241;-77
2020/12/09 11:24:32;;;;;;;9.23;4.87;;;;;;;;;;5003220;28;20248;-77
2020/12/09 11:26:59;;;;;;;7.00;4.40;;;;;;;;;;5018697;28;20216;-77
2020/12/09 11:29:27;;;;;;;9.10;5.20;;;;;;;;;;5012447;28;20228;-77
2020/12/09 11:31:55;;;;;;;9.00;4.80;;;;;;;;;;5021799;28;20319;-77
2020/12/09 11:34:24;;;;;;;8.23;5.10;;;;;;;;;;5029729;28;20694;-77
2020/12/09 11:36:51;;;;;;;7.83;5.17;;;;;;;;;;5019616;28;20227;-77
2020/12/09 11:39:19;;;;;;;8.10;4.67;;;;;;;;;;5019850;28;20226;-77
2020/12/09 11:41:46;;;;;;;8.37;5.03;;;;;;;;;;4995138;28;20339;-78
2020/12/09 11:44:14;;;;;;;7.73;5.57;;;;;;;;;;5009424;28;20239;-77
2020/12/09 11:46:42;;;;;;;10.07;5.47;;;;;;;;;;4998061;28;20235;-78
2020/12/09 11:49:11;;;;;;;7.43;4.60;;;;;;;;;;4992403;28;20236;-77
2020/12/09 11:51:39;;;;;;;7.40;5.23;;;;;;;;;;5016338;28;20591;-77
2020/12/09 11:54:06;;;;;;;7.27;5.00;;;;;;;;;;5030269;28;20235;-78
2020/12/09 11:56:34;;;;;;;7.63;4.80;;;;;;;;;;5007209;28;20236;-78
2020/12/09 11:59:01;;;;;;;8.33;5.30;;;;;;;;;;5067745;28;20235;-77
2020/12/09 12:01:29;;;;;;;8.87;5.67;;;;;;;;;;5007750;28;20229;-77
2020/12/09 12:03:57;;;;;;;11.83;6.20;;;;;;;;;;5010737;28;20232;-77
2020/12/09 12:06:26;;;;;;;8.57;5.37;;;;;;;;;;5029976;28;20232;-77
2020/12/09 12:08:54;;;;;;;9.50;5.57;;;;;;;;;;5009172;28;20234;-77
2020/12/09 12:11:23;;;;;;;8.90;5.37;;;;;;;;;;5002689;28;20312;-77
2020/12/09 12:13:52;;;;;;;8.67;5.23;;;;;;;;;;5000205;28;20227;-78
2020/12/09 12:16:21;;;;;;;8.27;5.57;;;;;;;;;;5026838;28;20551;-78
2020/12/09 12:18:49;;;;;;;7.60;5.10;;;;;;;;;;5027455;28;20221;-77
2020/12/09 12:21:19;;;;;;;8.83;4.77;;;;;;;;;;5031354;28;20239;-78
2020/12/09 12:23:46;;;;;;;8.93;4.67;;;;;;;;;;5046232;28;20239;-78
2020/12/09 12:26:18;;;;;;;8.97;5.13;;;;;;;;;;5013708;28;20232;-78
2020/12/09 12:28:45;;;;;;;9.20;5.43;;;;;;;;;;5014446;28;20230;-78
2020/12/09 12:31:14;;;;;;;11.40;5.30;;;;;;;;;;5032831;28;20232;-77
2020/12/09 12:33:42;;;;;;;10.43;6.67;;;;;;;;;;5042190;28;20216;-78
2020/12/09 12:36:11;;;;;;;10.87;6.03;;;;;;;;;;5026352;28;20236;-78
2020/12/09 12:38:39;;;;;;;10.40;5.83;;;;;;;;;;5054152;28;20232;-77
2020/12/09 12:41:08;;;;;;;10.37;6.37;;;;;;;;;;5024198;28;20232;-77
2020/12/09 12:43:38;;;;;;;8.90;5.73;;;;;;;;;;5034859;28;20250;-77
2020/12/09 12:46:08;;;;;;;8.87;5.87;;;;;;;;;;5021998;28;21236;-77
2020/12/09 12:48:36;;;;;;;7.27;4.80;;;;;;;;;;5031401;28;20438;-77
2020/12/09 12:51:03;;;;;;;8.47;5.37;;;;;;;;;;5008977;28;20990;-78
2020/12/09 12:53:31;;;;;;;8.83;5.50;;;;;;;;;;5015098;28;20702;-78
2020/12/09 12:56:00;;;;;;;11.63;6.40;;;;;;;;;;4979761;28;20251;-78
2020/12/09 12:58:30;;;;;;;12.00;7.07;;;;;;;;;;4989484;28;20237;-78
2020/12/09 13:00:58;;;;;;;10.03;6.50;;;;;;;;;;5002950;28;20699;-78
2020/12/09 13:03:25;;;;;;;9.03;6.50;;;;;;;;;;4987555;28;20226;-77
2020/12/09 13:05:53;;;;;;;10.23;5.87;;;;;;;;;;5019527;28;20304;-78
2020/12/09 13:08:21;;;;;;;10.87;6.33;;;;;;;;;;5024135;28;20247;-77
2020/12/09 13:10:48;;;;;;;10.17;6.13;;;;;;;;;;5021234;28;20221;-78
2020/12/09 13:13:16;;;;;;;11.07;6.37;;;;;;;;;;5010097;28;20228;-78
2020/12/09 13:15:44;;;;;;;11.87;6.30;;;;;;;;;;4995853;28;20229;-78
2020/12/09 13:18:12;;;;;;;10.00;6.13;;;;;;;;;;5050232;28;20224;-78
2020/12/09 13:20:39;;;;;;;9.17;6.00;;;;;;;;;;5019767;28;20230;-79
2020/12/09 13:23:08;;;;;;;12.67;6.40;;;;;;;;;;5019677;28;20238;-78
2020/12/09 13:25:36;;;;;;;11.97;7.53;;;;;;;;;;5025067;28;20228;-78
2020/12/09 13:28:05;;;;;;;15.73;6.80;;;;;;;;;;5028861;28;20235;-78
2020/12/09 13:30:33;;;;;;;9.67;6.07;;;;;;;;;;5027725;28;20232;-78
2020/12/09 13:33:02;;;;;;;12.10;7.57;;;;;;;;;;5023092;28;20265;-78
2020/12/09 13:35:29;;;;;;;11.90;7.03;;;;;;;;;;5022144;28;20224;-79
2020/12/09 13:37:57;;;;;;;11.43;6.40;;;;;;;;;;5045650;28;20232;-77
2020/12/09 13:40:24;;;;;;;10.37;6.60;;;;;;;;;;5025124;28;20232;-77
2020/12/09 13:42:52;;;;;;;9.67;6.23;;;;;;;;;;5010915;28;20232;-80
2020/12/09 13:45:19;;;;;;;10.50;6.20;;;;;;;;;;5019799;28;20232;-78
2020/12/09 13:47:47;;;;;;;12.33;6.33;;;;;;;;;;5010909;28;20228;-78
2020/12/09 13:50:15;;;;;;;10.57;7.07;;;;;;;;;;5019371;28;20228;-77
2020/12/09 13:52:42;;;;;;;11.53;6.73;;;;;;;;;;5039307;28;20224;-77
2020/12/09 13:55:10;;;;;;;8.90;5.53;;;;;;;;;;5030005;28;20316;-79
2020/12/09 13:57:38;;;;;;;9.47;5.73;;;;;;;;;;5017719;28;20241;-77
2020/12/09 14:00:06;;;;;;;9.97;5.43;;;;;;;;;;4999587;28;20232;-79
2020/12/09 14:02:34;;;;;;;9.40;5.47;;;;;;;;;;4994953;28;20225;-77
2020/12/09 14:05:02;;;;;;;8.40;4.83;;;;;;;;;;4979015;28;20225;-77
2020/12/09 14:07:30;;;;;;;9.23;5.33;;;;;;;;;;5021418;28;20258;-78
2020/12/09 14:09:57;;;;;;;9.00;5.17;;;;;;;;;;5030894;28;20236;-80
2020/12/09 14:12:25;;;;;;;10.30;5.50;;;;;;;;;;5015235;28;20232;-78
2020/12/09 14:14:53;;;;;;;8.47;5.00;;;;;;;;;;5016492;28;20235;-78
2020/12/09 14:17:21;;;;;;;9.53;5.20;;;;;;;;;;5003979;28;20232;-78
2020/12/09 14:19:51;;;;;;;8.30;4.87;;;;;;;;;;5015233;28;20232;-78
2020/12/09 14:22:19;;;;;;;8.67;5.13;;;;;;;;;;5007162;28;20232;-78
2020/12/09 14:24:47;;;;;;;8.30;4.73;;;;;;;;;;4984788;28;20229;-79
2020/12/09 14:27:35;;;;;;;7.50;5.00;;;;;;;;;;4973053;28;20529;-78
2020/12/09 14:30:03;;;;;;;7.50;4.60;;;;;;;;;;4987393;28;20229;-78
2020/12/09 14:32:30;;;;;;;8.67;5.37;;;;;;;;;;4993810;28;20237;-78
2020/12/09 14:34:58;;;;;;;36.47;10.00;;;;;;;;;;5001924;28;20228;-78
2020/12/09 14:37:27;;;;;;;8.83;4.97;;;;;;;;;;5002567;28;20225;-78
2020/12/09 14:40:01;;;;;;;7.97;4.67;;;;;;;;;;4979274;28;20235;-77